Terrell, TX

4:46 AM CDT on July 24, 2016 (GMT -0500)
APRSWXNET | | Change Station

Elev 505 ft 32.80 °N, 96.30 °W | Updated 30 minutes ago

Clear
Clear
78 °F
Feels Like 80 °F
N
0
Wind Variable Wind from SSE
Gusts 0.0 mph

Today
High -- | Low -- °F
--% Chance of Precip.
Yesterday
High -- | Low -- °F
Precip. -- in
Pressure 29.91 in
Visibility 10.0 miles
Clouds Clear
Heat Index 80 °F
Dew Point 73 °F
Humidity 85%
Rainfall in
Snow Depth Not available.
6:34 AM 8:29 PM
Waning Gibbous, 78% visible
METAR KTRL 240853Z AUTO 16005KT 10SM CLR 27/22 A2993 RMK AO2 SLP126 T02670222 53001
Pressure 29.91 in
Visibility 10.0 miles
Clouds Clear
Heat Index 80 °F
Dew Point 73 °F
Humidity 85%
Rainfall in
Snow Depth Not available.
6:34 AM 8:29 PM
Waning Gibbous, 78% visible
METAR KTRL 240853Z AUTO 16005KT 10SM CLR 27/22 A2993 RMK AO2 SLP126 T02670222 53001

10-Day Weather Forecast

Almanac

Astronomy

Jul. 24, 2016 Rise Set
Actual Time
Civil Twilight
Nautical Twilight
Astronomical Twilight
Moon
Length of Visible Light
Length of Day
Tomorrow will be .
, % of the Moon is Illuminated

Today's Extremes

State Highs State Lows

Community

WunderPhotos

Upload Photos

1,927,042 photos uploaded!

WunderBlog® & News

Nearby

Air Quality

  Air Quality AQ Index Pollutant
Not available.

Snow Depth

Station Depth Elevation

Earthquake Activity

City Distance Mag. Time & Date
Minimum magnitude displayed is 2.5.

Coastal Water Temperatures

Place Temperature

Stations

Nearby Weather Stations

Station Location Temp. Windchill Dew Point Humidity Wind Precip. Elev Updated Type
                   

Watches & Warnings

There are currently no watches in effect.